sensor_id;sensor_type;location;lat;lon;timestamp;P1;durP1;ratioP1;P2;durP2;ratioP2
828;SDS011;396;52.558;13.188;2022-11-20T00:00:09;18.20;;;7.27;;
828;SDS011;396;52.558;13.188;2022-11-20T00:02:37;14.53;;;6.13;;
828;SDS011;396;52.558;13.188;2022-11-20T00:05:06;16.10;;;7.00;;
828;SDS011;396;52.558;13.188;2022-11-20T00:07:33;14.10;;;6.60;;
828;SDS011;396;52.558;13.188;2022-11-20T00:10:00;14.97;;;6.63;;
828;SDS011;396;52.558;13.188;2022-11-20T00:12:26;27.77;;;7.53;;
828;SDS011;396;52.558;13.188;2022-11-20T00:14:53;12.30;;;5.43;;
828;SDS011;396;52.558;13.188;2022-11-20T00:17:19;15.50;;;7.03;;
828;SDS011;396;52.558;13.188;2022-11-20T00:19:46;18.10;;;6.40;;
828;SDS011;396;52.558;13.188;2022-11-20T00:22:14;22.63;;;7.23;;
828;SDS011;396;52.558;13.188;2022-11-20T00:24:40;12.20;;;5.30;;
828;SDS011;396;52.558;13.188;2022-11-20T00:27:07;16.97;;;7.23;;
828;SDS011;396;52.558;13.188;2022-11-20T00:29:34;14.77;;;6.10;;
828;SDS011;396;52.558;13.188;2022-11-20T00:32:00;22.40;;;6.20;;
828;SDS011;396;52.558;13.188;2022-11-20T00:34:27;11.97;;;5.93;;
828;SDS011;396;52.558;13.188;2022-11-20T00:36:53;18.00;;;7.23;;
828;SDS011;396;52.558;13.188;2022-11-20T00:39:21;11.67;;;5.67;;
828;SDS011;396;52.558;13.188;2022-11-20T00:41:48;16.00;;;6.90;;
828;SDS011;396;52.558;13.188;2022-11-20T00:44:15;11.40;;;4.83;;
828;SDS011;396;52.558;13.188;2022-11-20T00:46:41;17.30;;;6.43;;
828;SDS011;396;52.558;13.188;2022-11-20T00:49:08;17.93;;;7.00;;
828;SDS011;396;52.558;13.188;2022-11-20T00:51:34;17.43;;;7.13;;
828;SDS011;396;52.558;13.188;2022-11-20T00:54:01;12.87;;;6.23;;
828;SDS011;396;52.558;13.188;2022-11-20T00:56:29;14.60;;;6.80;;
828;SDS011;396;52.558;13.188;2022-11-20T00:58:58;20.03;;;7.70;;
828;SDS011;396;52.558;13.188;2022-11-20T01:01:25;12.10;;;5.77;;
828;SDS011;396;52.558;13.188;2022-11-20T01:03:55;12.50;;;5.83;;
828;SDS011;396;52.558;13.188;2022-11-20T01:06:23;12.63;;;5.57;;
828;SDS011;396;52.558;13.188;2022-11-20T01:08:52;13.57;;;6.97;;
828;SDS011;396;52.558;13.188;2022-11-20T01:11:20;14.23;;;6.13;;
828;SDS011;396;52.558;13.188;2022-11-20T01:13:51;18.07;;;7.07;;
828;SDS011;396;52.558;13.188;2022-11-20T01:16:19;14.37;;;5.57;;
828;SDS011;396;52.558;13.188;2022-11-20T01:18:48;20.03;;;6.90;;
828;SDS011;396;52.558;13.188;2022-11-20T01:21:16;15.30;;;7.13;;
828;SDS011;396;52.558;13.188;2022-11-20T01:23:44;17.33;;;6.10;;
828;SDS011;396;52.558;13.188;2022-11-20T01:26:12;17.23;;;6.77;;
828;SDS011;396;52.558;13.188;2022-11-20T01:28:40;14.13;;;6.90;;
828;SDS011;396;52.558;13.188;2022-11-20T01:31:12;12.10;;;5.77;;
828;SDS011;396;52.558;13.188;2022-11-20T01:33:40;15.73;;;7.17;;
828;SDS011;396;52.558;13.188;2022-11-20T01:36:08;14.40;;;6.40;;
828;SDS011;396;52.558;13.188;2022-11-20T01:38:35;17.53;;;6.63;;
828;SDS011;396;52.558;13.188;2022-11-20T01:41:02;14.50;;;5.80;;
828;SDS011;396;52.558;13.188;2022-11-20T01:43:30;13.37;;;6.47;;
828;SDS011;396;52.558;13.188;2022-11-20T01:46:14;15.07;;;6.63;;
828;SDS011;396;52.558;13.188;2022-11-20T01:48:43;14.70;;;6.23;;
828;SDS011;396;52.558;13.188;2022-11-20T01:51:17;18.73;;;7.73;;
828;SDS011;396;52.558;13.188;2022-11-20T01:53:48;14.00;;;6.60;;
828;SDS011;396;52.558;13.188;2022-11-20T01:56:15;12.57;;;5.90;;
828;SDS011;396;52.558;13.188;2022-11-20T01:58:44;12.30;;;6.00;;
828;SDS011;396;52.558;13.188;2022-11-20T02:01:15;12.53;;;5.80;;
828;SDS011;396;52.558;13.188;2022-11-20T02:03:42;14.37;;;6.20;;
828;SDS011;396;52.558;13.188;2022-11-20T02:06:11;19.00;;;7.10;;
828;SDS011;396;52.558;13.188;2022-11-20T02:08:43;16.40;;;6.97;;
828;SDS011;396;52.558;13.188;2022-11-20T02:11:09;14.20;;;6.97;;
828;SDS011;396;52.558;13.188;2022-11-20T02:13:37;15.17;;;6.87;;
828;SDS011;396;52.558;13.188;2022-11-20T02:16:18;19.40;;;7.37;;
828;SDS011;396;52.558;13.188;2022-11-20T02:18:47;15.13;;;7.77;;
828;SDS011;396;52.558;13.188;2022-11-20T02:21:20;17.80;;;6.67;;
828;SDS011;396;52.558;13.188;2022-11-20T02:23:55;18.53;;;6.57;;
828;SDS011;396;52.558;13.188;2022-11-20T02:26:26;15.90;;;7.10;;
828;SDS011;396;52.558;13.188;2022-11-20T02:28:56;17.57;;;6.30;;
828;SDS011;396;52.558;13.188;2022-11-20T02:31:24;19.50;;;7.80;;
828;SDS011;396;52.558;13.188;2022-11-20T02:33:53;15.50;;;7.07;;
828;SDS011;396;52.558;13.188;2022-11-20T02:36:21;14.07;;;6.43;;
828;SDS011;396;52.558;13.188;2022-11-20T02:38:48;14.13;;;6.27;;
828;SDS011;396;52.558;13.188;2022-11-20T02:41:17;14.13;;;5.93;;
828;SDS011;396;52.558;13.188;2022-11-20T02:43:43;14.73;;;6.43;;
828;SDS011;396;52.558;13.188;2022-11-20T02:46:10;13.13;;;6.80;;
828;SDS011;396;52.558;13.188;2022-11-20T02:48:37;17.07;;;6.47;;
828;SDS011;396;52.558;13.188;2022-11-20T02:51:03;16.80;;;7.80;;
828;SDS011;396;52.558;13.188;2022-11-20T02:53:30;15.47;;;7.10;;
828;SDS011;396;52.558;13.188;2022-11-20T02:55:57;15.43;;;6.60;;
828;SDS011;396;52.558;13.188;2022-11-20T02:58:25;15.90;;;7.40;;
828;SDS011;396;52.558;13.188;2022-11-20T03:00:52;12.47;;;6.20;;
828;SDS011;396;52.558;13.188;2022-11-20T03:03:18;15.63;;;7.17;;
828;SDS011;396;52.558;13.188;2022-11-20T03:05:45;16.90;;;6.50;;
828;SDS011;396;52.558;13.188;2022-11-20T03:08:11;21.00;;;7.57;;
828;SDS011;396;52.558;13.188;2022-11-20T03:10:38;16.07;;;6.63;;
828;SDS011;396;52.558;13.188;2022-11-20T03:13:04;13.57;;;6.37;;
828;SDS011;396;52.558;13.188;2022-11-20T03:15:32;16.20;;;7.27;;
828;SDS011;396;52.558;13.188;2022-11-20T03:17:59;17.00;;;6.37;;
828;SDS011;396;52.558;13.188;2022-11-20T03:20:25;13.93;;;6.60;;
828;SDS011;396;52.558;13.188;2022-11-20T03:22:53;15.57;;;7.40;;
828;SDS011;396;52.558;13.188;2022-11-20T03:25:20;15.27;;;7.80;;
828;SDS011;396;52.558;13.188;2022-11-20T03:27:47;17.20;;;7.37;;
828;SDS011;396;52.558;13.188;2022-11-20T03:30:13;15.23;;;7.13;;
828;SDS011;396;52.558;13.188;2022-11-20T03:32:42;20.10;;;7.43;;
828;SDS011;396;52.558;13.188;2022-11-20T03:35:09;15.97;;;6.80;;
828;SDS011;396;52.558;13.188;2022-11-20T03:37:35;15.13;;;7.73;;
828;SDS011;396;52.558;13.188;2022-11-20T03:40:02;15.87;;;7.20;;
828;SDS011;396;52.558;13.188;2022-11-20T03:42:30;19.20;;;7.40;;
828;SDS011;396;52.558;13.188;2022-11-20T03:45:11;16.10;;;7.70;;
828;SDS011;396;52.558;13.188;2022-11-20T03:47:38;20.90;;;8.77;;
828;SDS011;396;52.558;13.188;2022-11-20T03:50:06;18.93;;;6.17;;
828;SDS011;396;52.558;13.188;2022-11-20T03:52:33;19.90;;;8.40;;
828;SDS011;396;52.558;13.188;2022-11-20T03:55:00;26.60;;;7.60;;
828;SDS011;396;52.558;13.188;2022-11-20T03:57:27;15.50;;;6.90;;
828;SDS011;396;52.558;13.188;2022-11-20T03:59:53;15.97;;;7.00;;
828;SDS011;396;52.558;13.188;2022-11-20T04:02:20;20.37;;;8.27;;
828;SDS011;396;52.558;13.188;2022-11-20T04:04:46;20.00;;;8.37;;
828;SDS011;396;52.558;13.188;2022-11-20T04:07:14;17.80;;;7.13;;
828;SDS011;396;52.558;13.188;2022-11-20T04:09:41;15.83;;;7.97;;
828;SDS011;396;52.558;13.188;2022-11-20T04:12:08;13.30;;;6.43;;
828;SDS011;396;52.558;13.188;2022-11-20T04:14:34;20.53;;;7.27;;
828;SDS011;396;52.558;13.188;2022-11-20T04:17:01;13.93;;;6.70;;
828;SDS011;396;52.558;13.188;2022-11-20T04:19:27;21.50;;;8.90;;
828;SDS011;396;52.558;13.188;2022-11-20T04:21:54;19.97;;;8.20;;
828;SDS011;396;52.558;13.188;2022-11-20T04:24:22;15.77;;;7.50;;
828;SDS011;396;52.558;13.188;2022-11-20T04:26:48;18.50;;;7.33;;
828;SDS011;396;52.558;13.188;2022-11-20T04:29:15;15.50;;;7.20;;
828;SDS011;396;52.558;13.188;2022-11-20T04:31:41;16.23;;;7.67;;
828;SDS011;396;52.558;13.188;2022-11-20T04:34:10;16.10;;;7.90;;
828;SDS011;396;52.558;13.188;2022-11-20T04:36:37;16.00;;;7.70;;
828;SDS011;396;52.558;13.188;2022-11-20T04:39:04;15.30;;;7.70;;
828;SDS011;396;52.558;13.188;2022-11-20T04:41:34;15.33;;;7.60;;
828;SDS011;396;52.558;13.188;2022-11-20T04:44:02;15.27;;;7.03;;
828;SDS011;396;52.558;13.188;2022-11-20T04:46:31;19.47;;;8.30;;
828;SDS011;396;52.558;13.188;2022-11-20T04:48:58;17.97;;;7.47;;
828;SDS011;396;52.558;13.188;2022-11-20T04:51:25;17.77;;;8.63;;
828;SDS011;396;52.558;13.188;2022-11-20T04:53:53;19.47;;;8.00;;
828;SDS011;396;52.558;13.188;2022-11-20T04:56:19;22.90;;;8.50;;
828;SDS011;396;52.558;13.188;2022-11-20T04:58:47;19.17;;;7.77;;
828;SDS011;396;52.558;13.188;2022-11-20T05:01:15;18.93;;;8.30;;
828;SDS011;396;52.558;13.188;2022-11-20T05:03:43;14.80;;;7.00;;
828;SDS011;396;52.558;13.188;2022-11-20T05:06:11;19.77;;;8.90;;
828;SDS011;396;52.558;13.188;2022-11-20T05:08:39;20.73;;;8.70;;
828;SDS011;396;52.558;13.188;2022-11-20T05:11:06;16.33;;;7.37;;
828;SDS011;396;52.558;13.188;2022-11-20T05:13:33;20.63;;;8.50;;
828;SDS011;396;52.558;13.188;2022-11-20T05:16:02;19.80;;;8.90;;
828;SDS011;396;52.558;13.188;2022-11-20T05:18:29;23.60;;;7.57;;
828;SDS011;396;52.558;13.188;2022-11-20T05:20:56;18.70;;;7.40;;
828;SDS011;396;52.558;13.188;2022-11-20T05:23:23;16.47;;;7.40;;
828;SDS011;396;52.558;13.188;2022-11-20T05:25:51;21.90;;;8.73;;
828;SDS011;396;52.558;13.188;2022-11-20T05:28:18;15.90;;;7.37;;
828;SDS011;396;52.558;13.188;2022-11-20T05:30:45;19.77;;;7.73;;
828;SDS011;396;52.558;13.188;2022-11-20T05:33:13;21.40;;;8.97;;
828;SDS011;396;52.558;13.188;2022-11-20T05:35:40;17.17;;;7.73;;
828;SDS011;396;52.558;13.188;2022-11-20T05:38:07;19.57;;;8.83;;
828;SDS011;396;52.558;13.188;2022-11-20T05:40:34;17.13;;;8.40;;
828;SDS011;396;52.558;13.188;2022-11-20T05:43:00;21.73;;;9.17;;
828;SDS011;396;52.558;13.188;2022-11-20T05:45:27;18.50;;;8.37;;
828;SDS011;396;52.558;13.188;2022-11-20T05:47:57;20.67;;;8.07;;
828;SDS011;396;52.558;13.188;2022-11-20T05:50:25;14.30;;;7.00;;
828;SDS011;396;52.558;13.188;2022-11-20T05:52:51;21.93;;;8.17;;
828;SDS011;396;52.558;13.188;2022-11-20T05:55:18;15.37;;;6.93;;
828;SDS011;396;52.558;13.188;2022-11-20T05:57:45;17.40;;;8.23;;
828;SDS011;396;52.558;13.188;2022-11-20T06:00:12;17.40;;;8.10;;
828;SDS011;396;52.558;13.188;2022-11-20T06:02:39;20.33;;;8.30;;
828;SDS011;396;52.558;13.188;2022-11-20T06:05:06;22.90;;;8.80;;
828;SDS011;396;52.558;13.188;2022-11-20T06:07:35;14.13;;;7.00;;
828;SDS011;396;52.558;13.188;2022-11-20T06:10:01;17.40;;;7.50;;
828;SDS011;396;52.558;13.188;2022-11-20T06:12:30;15.90;;;7.60;;
828;SDS011;396;52.558;13.188;2022-11-20T06:14:57;17.57;;;7.07;;
828;SDS011;396;52.558;13.188;2022-11-20T06:17:24;25.63;;;8.80;;
828;SDS011;396;52.558;13.188;2022-11-20T06:19:50;17.47;;;7.83;;
828;SDS011;396;52.558;13.188;2022-11-20T06:22:17;17.37;;;7.00;;
828;SDS011;396;52.558;13.188;2022-11-20T06:24:45;15.50;;;8.00;;
828;SDS011;396;52.558;13.188;2022-11-20T06:27:11;18.70;;;8.00;;
828;SDS011;396;52.558;13.188;2022-11-20T06:29:38;14.90;;;7.37;;
828;SDS011;396;52.558;13.188;2022-11-20T06:32:04;16.83;;;8.37;;
828;SDS011;396;52.558;13.188;2022-11-20T06:34:31;19.93;;;9.17;;
828;SDS011;396;52.558;13.188;2022-11-20T06:36:57;15.97;;;7.50;;
828;SDS011;396;52.558;13.188;2022-11-20T06:39:24;18.90;;;7.83;;
828;SDS011;396;52.558;13.188;2022-11-20T06:41:52;30.63;;;7.93;;
828;SDS011;396;52.558;13.188;2022-11-20T06:44:18;20.77;;;9.00;;
828;SDS011;396;52.558;13.188;2022-11-20T06:46:45;18.27;;;7.23;;
828;SDS011;396;52.558;13.188;2022-11-20T06:49:12;22.07;;;8.67;;
828;SDS011;396;52.558;13.188;2022-11-20T06:51:38;15.90;;;7.03;;
828;SDS011;396;52.558;13.188;2022-11-20T06:54:05;16.97;;;8.27;;
828;SDS011;396;52.558;13.188;2022-11-20T06:56:31;22.60;;;9.03;;
828;SDS011;396;52.558;13.188;2022-11-20T06:58:59;16.93;;;7.43;;
828;SDS011;396;52.558;13.188;2022-11-20T07:01:30;18.57;;;7.10;;
828;SDS011;396;52.558;13.188;2022-11-20T07:03:56;14.70;;;7.20;;
828;SDS011;396;52.558;13.188;2022-11-20T07:06:23;19.37;;;8.13;;
828;SDS011;396;52.558;13.188;2022-11-20T07:08:50;25.60;;;9.80;;
828;SDS011;396;52.558;13.188;2022-11-20T07:11:17;17.27;;;7.97;;
828;SDS011;396;52.558;13.188;2022-11-20T07:13:43;23.20;;;9.03;;
828;SDS011;396;52.558;13.188;2022-11-20T07:16:11;20.63;;;9.00;;
828;SDS011;396;52.558;13.188;2022-11-20T07:18:38;19.57;;;9.50;;
828;SDS011;396;52.558;13.188;2022-11-20T07:21:05;17.83;;;8.57;;
828;SDS011;396;52.558;13.188;2022-11-20T07:23:33;17.03;;;7.60;;
828;SDS011;396;52.558;13.188;2022-11-20T07:26:02;16.73;;;7.43;;
828;SDS011;396;52.558;13.188;2022-11-20T07:28:29;22.13;;;9.20;;
828;SDS011;396;52.558;13.188;2022-11-20T07:30:55;21.20;;;8.80;;
828;SDS011;396;52.558;13.188;2022-11-20T07:33:23;25.60;;;8.77;;
828;SDS011;396;52.558;13.188;2022-11-20T07:35:50;27.03;;;11.50;;
828;SDS011;396;52.558;13.188;2022-11-20T07:38:16;24.90;;;9.47;;
828;SDS011;396;52.558;13.188;2022-11-20T07:40:43;19.50;;;10.00;;
828;SDS011;396;52.558;13.188;2022-11-20T07:43:10;15.87;;;8.13;;
828;SDS011;396;52.558;13.188;2022-11-20T07:45:36;24.73;;;8.80;;
828;SDS011;396;52.558;13.188;2022-11-20T07:48:03;18.23;;;8.67;;
828;SDS011;396;52.558;13.188;2022-11-20T07:50:31;18.77;;;7.53;;
828;SDS011;396;52.558;13.188;2022-11-20T07:53:01;23.00;;;10.10;;
828;SDS011;396;52.558;13.188;2022-11-20T07:55:29;22.57;;;8.03;;
828;SDS011;396;52.558;13.188;2022-11-20T07:57:56;18.37;;;8.43;;
828;SDS011;396;52.558;13.188;2022-11-20T08:00:23;19.33;;;9.70;;
828;SDS011;396;52.558;13.188;2022-11-20T08:02:50;24.50;;;9.23;;
828;SDS011;396;52.558;13.188;2022-11-20T08:05:17;16.07;;;7.50;;
828;SDS011;396;52.558;13.188;2022-11-20T08:07:45;24.83;;;9.00;;
828;SDS011;396;52.558;13.188;2022-11-20T08:10:12;21.03;;;9.33;;
828;SDS011;396;52.558;13.188;2022-11-20T08:12:43;24.63;;;10.00;;
828;SDS011;396;52.558;13.188;2022-11-20T08:15:28;17.90;;;9.10;;
828;SDS011;396;52.558;13.188;2022-11-20T08:17:58;17.43;;;8.67;;
828;SDS011;396;52.558;13.188;2022-11-20T08:20:26;18.50;;;7.23;;
828;SDS011;396;52.558;13.188;2022-11-20T08:22:58;22.30;;;8.70;;
828;SDS011;396;52.558;13.188;2022-11-20T08:25:25;19.00;;;8.23;;
828;SDS011;396;52.558;13.188;2022-11-20T08:27:52;20.80;;;10.10;;
828;SDS011;396;52.558;13.188;2022-11-20T08:30:19;21.40;;;9.63;;
828;SDS011;396;52.558;13.188;2022-11-20T08:32:45;32.73;;;10.60;;
828;SDS011;396;52.558;13.188;2022-11-20T08:35:12;19.53;;;8.50;;
828;SDS011;396;52.558;13.188;2022-11-20T08:37:38;21.10;;;9.17;;
828;SDS011;396;52.558;13.188;2022-11-20T08:40:08;21.70;;;9.73;;
828;SDS011;396;52.558;13.188;2022-11-20T08:42:36;20.10;;;9.60;;
828;SDS011;396;52.558;13.188;2022-11-20T08:45:03;16.97;;;9.10;;
828;SDS011;396;52.558;13.188;2022-11-20T08:47:30;17.23;;;8.33;;
828;SDS011;396;52.558;13.188;2022-11-20T08:49:57;19.70;;;9.37;;
828;SDS011;396;52.558;13.188;2022-11-20T08:52:23;24.40;;;9.57;;
828;SDS011;396;52.558;13.188;2022-11-20T08:54:50;26.27;;;10.10;;
828;SDS011;396;52.558;13.188;2022-11-20T08:57:18;24.33;;;10.50;;
828;SDS011;396;52.558;13.188;2022-11-20T08:59:45;23.03;;;9.10;;
828;SDS011;396;52.558;13.188;2022-11-20T09:02:11;20.10;;;10.33;;
828;SDS011;396;52.558;13.188;2022-11-20T09:04:38;23.07;;;9.23;;
828;SDS011;396;52.558;13.188;2022-11-20T09:07:04;21.90;;;9.27;;
828;SDS011;396;52.558;13.188;2022-11-20T09:09:31;18.43;;;8.40;;
828;SDS011;396;52.558;13.188;2022-11-20T09:11:58;18.07;;;8.30;;
828;SDS011;396;52.558;13.188;2022-11-20T09:14:26;23.87;;;9.30;;
828;SDS011;396;52.558;13.188;2022-11-20T09:16:55;25.17;;;9.97;;
828;SDS011;396;52.558;13.188;2022-11-20T09:19:21;24.23;;;11.17;;
828;SDS011;396;52.558;13.188;2022-11-20T09:21:49;21.60;;;9.80;;
828;SDS011;396;52.558;13.188;2022-11-20T09:24:16;20.40;;;8.87;;
828;SDS011;396;52.558;13.188;2022-11-20T09:26:43;24.73;;;9.63;;
828;SDS011;396;52.558;13.188;2022-11-20T09:29:09;27.37;;;10.50;;
828;SDS011;396;52.558;13.188;2022-11-20T09:31:37;20.87;;;9.30;;
828;SDS011;396;52.558;13.188;2022-11-20T09:34:04;18.10;;;8.00;;
828;SDS011;396;52.558;13.188;2022-11-20T09:36:31;18.67;;;9.10;;
828;SDS011;396;52.558;13.188;2022-11-20T09:38:57;26.77;;;10.13;;
828;SDS011;396;52.558;13.188;2022-11-20T09:44:36;19.13;;;8.90;;
828;SDS011;396;52.558;13.188;2022-11-20T09:47:15;21.67;;;8.77;;
828;SDS011;396;52.558;13.188;2022-11-20T09:49:58;21.03;;;7.70;;
828;SDS011;396;52.558;13.188;2022-11-20T09:52:36;17.60;;;8.87;;
828;SDS011;396;52.558;13.188;2022-11-20T09:55:13;16.47;;;7.87;;
828;SDS011;396;52.558;13.188;2022-11-20T09:57:42;16.30;;;8.33;;
828;SDS011;396;52.558;13.188;2022-11-20T10:00:12;16.60;;;8.00;;
828;SDS011;396;52.558;13.188;2022-11-20T10:02:44;17.60;;;8.20;;
828;SDS011;396;52.558;13.188;2022-11-20T10:05:16;21.97;;;9.27;;
828;SDS011;396;52.558;13.188;2022-11-20T10:07:47;15.53;;;7.80;;
828;SDS011;396;52.558;13.188;2022-11-20T10:10:21;23.23;;;9.13;;
828;SDS011;396;52.558;13.188;2022-11-20T10:13:00;19.03;;;8.33;;
828;SDS011;396;52.558;13.188;2022-11-20T10:15:38;26.23;;;9.60;;
828;SDS011;396;52.558;13.188;2022-11-20T10:18:18;19.50;;;8.27;;
828;SDS011;396;52.558;13.188;2022-11-20T10:20:56;19.50;;;7.93;;
828;SDS011;396;52.558;13.188;2022-11-20T10:23:41;14.10;;;6.23;;
828;SDS011;396;52.558;13.188;2022-11-20T10:26:16;18.20;;;7.83;;
828;SDS011;396;52.558;13.188;2022-11-20T10:28:50;25.03;;;9.77;;
828;SDS011;396;52.558;13.188;2022-11-20T10:31:27;21.27;;;8.77;;
828;SDS011;396;52.558;13.188;2022-11-20T10:34:01;14.13;;;7.50;;
828;SDS011;396;52.558;13.188;2022-11-20T10:36:33;23.73;;;8.57;;
828;SDS011;396;52.558;13.188;2022-11-20T10:39:05;16.10;;;8.00;;
828;SDS011;396;52.558;13.188;2022-11-20T10:41:40;18.83;;;8.83;;
828;SDS011;396;52.558;13.188;2022-11-20T10:44:09;22.07;;;7.67;;
828;SDS011;396;52.558;13.188;2022-11-20T10:46:42;16.97;;;7.77;;
828;SDS011;396;52.558;13.188;2022-11-20T10:49:14;18.67;;;8.10;;
828;SDS011;396;52.558;13.188;2022-11-20T10:51:46;20.77;;;8.70;;
828;SDS011;396;52.558;13.188;2022-11-20T10:54:25;15.10;;;6.97;;
828;SDS011;396;52.558;13.188;2022-11-20T10:57:02;16.83;;;7.57;;
828;SDS011;396;52.558;13.188;2022-11-20T10:59:45;17.73;;;7.57;;
828;SDS011;396;52.558;13.188;2022-11-20T11:02:22;16.10;;;7.37;;
828;SDS011;396;52.558;13.188;2022-11-20T11:04:51;15.90;;;6.87;;
828;SDS011;396;52.558;13.188;2022-11-20T11:07:20;21.53;;;6.90;;
828;SDS011;396;52.558;13.188;2022-11-20T11:09:50;19.80;;;7.80;;
828;SDS011;396;52.558;13.188;2022-11-20T11:12:19;17.63;;;7.07;;
828;SDS011;396;52.558;13.188;2022-11-20T11:14:48;13.67;;;6.57;;
828;SDS011;396;52.558;13.188;2022-11-20T11:17:23;16.97;;;6.90;;
828;SDS011;396;52.558;13.188;2022-11-20T11:20:01;14.70;;;7.07;;
828;SDS011;396;52.558;13.188;2022-11-20T11:22:30;18.40;;;8.33;;
828;SDS011;396;52.558;13.188;2022-11-20T11:24:58;19.27;;;7.37;;
828;SDS011;396;52.558;13.188;2022-11-20T11:27:25;15.03;;;7.10;;
828;SDS011;396;52.558;13.188;2022-11-20T11:30:01;14.00;;;5.90;;
828;SDS011;396;52.558;13.188;2022-11-20T11:32:30;15.67;;;6.87;;
828;SDS011;396;52.558;13.188;2022-11-20T11:35:02;16.93;;;6.63;;
828;SDS011;396;52.558;13.188;2022-11-20T11:37:32;17.00;;;6.47;;
828;SDS011;396;52.558;13.188;2022-11-20T11:40:00;16.93;;;6.67;;
828;SDS011;396;52.558;13.188;2022-11-20T11:42:28;11.57;;;6.20;;
828;SDS011;396;52.558;13.188;2022-11-20T11:44:55;22.83;;;7.70;;
828;SDS011;396;52.558;13.188;2022-11-20T11:47:33;20.00;;;7.30;;
828;SDS011;396;52.558;13.188;2022-11-20T11:50:13;12.90;;;6.97;;
828;SDS011;396;52.558;13.188;2022-11-20T11:52:42;12.17;;;5.77;;
828;SDS011;396;52.558;13.188;2022-11-20T11:55:14;15.03;;;6.80;;
828;SDS011;396;52.558;13.188;2022-11-20T11:57:45;14.47;;;6.80;;
828;SDS011;396;52.558;13.188;2022-11-20T12:00:15;13.93;;;5.70;;
828;SDS011;396;52.558;13.188;2022-11-20T12:02:48;15.40;;;5.67;;
828;SDS011;396;52.558;13.188;2022-11-20T12:05:23;14.07;;;6.73;;
828;SDS011;396;52.558;13.188;2022-11-20T12:07:52;18.70;;;7.07;;
828;SDS011;396;52.558;13.188;2022-11-20T12:10:33;15.17;;;6.97;;
828;SDS011;396;52.558;13.188;2022-11-20T12:13:10;13.87;;;6.53;;
828;SDS011;396;52.558;13.188;2022-11-20T12:15:54;21.40;;;8.00;;
828;SDS011;396;52.558;13.188;2022-11-20T12:18:21;16.80;;;7.43;;
828;SDS011;396;52.558;13.188;2022-11-20T12:20:53;18.70;;;7.30;;
828;SDS011;396;52.558;13.188;2022-11-20T12:23:31;14.83;;;6.40;;
828;SDS011;396;52.558;13.188;2022-11-20T12:26:07;12.73;;;6.00;;
828;SDS011;396;52.558;13.188;2022-11-20T12:28:47;12.47;;;5.97;;
828;SDS011;396;52.558;13.188;2022-11-20T12:31:37;15.33;;;7.17;;
828;SDS011;396;52.558;13.188;2022-11-20T12:34:21;16.33;;;7.00;;
828;SDS011;396;52.558;13.188;2022-11-20T12:36:59;18.10;;;7.00;;
828;SDS011;396;52.558;13.188;2022-11-20T12:39:34;13.50;;;5.37;;
828;SDS011;396;52.558;13.188;2022-11-20T12:42:16;17.87;;;6.77;;
828;SDS011;396;52.558;13.188;2022-11-20T12:45:18;13.60;;;6.43;;
828;SDS011;396;52.558;13.188;2022-11-20T12:48:08;15.00;;;7.10;;
828;SDS011;396;52.558;13.188;2022-11-20T12:51:08;18.70;;;7.47;;
828;SDS011;396;52.558;13.188;2022-11-20T12:53:59;13.80;;;5.63;;
828;SDS011;396;52.558;13.188;2022-11-20T12:56:38;13.93;;;6.90;;
828;SDS011;396;52.558;13.188;2022-11-20T12:59:16;13.30;;;6.43;;
828;SDS011;396;52.558;13.188;2022-11-20T13:01:53;20.20;;;7.47;;
828;SDS011;396;52.558;13.188;2022-11-20T13:04:31;16.70;;;6.90;;
828;SDS011;396;52.558;13.188;2022-11-20T13:07:11;19.93;;;6.40;;
828;SDS011;396;52.558;13.188;2022-11-20T13:09:42;16.20;;;6.80;;
828;SDS011;396;52.558;13.188;2022-11-20T13:12:13;16.77;;;6.43;;
828;SDS011;396;52.558;13.188;2022-11-20T13:14:45;17.70;;;6.63;;
828;SDS011;396;52.558;13.188;2022-11-20T13:17:19;13.87;;;5.70;;
828;SDS011;396;52.558;13.188;2022-11-20T13:19:52;18.27;;;7.40;;
828;SDS011;396;52.558;13.188;2022-11-20T13:22:24;15.27;;;6.00;;
828;SDS011;396;52.558;13.188;2022-11-20T13:24:52;14.20;;;6.47;;
828;SDS011;396;52.558;13.188;2022-11-20T13:27:20;16.00;;;5.70;;
828;SDS011;396;52.558;13.188;2022-11-20T13:29:58;12.03;;;5.23;;
828;SDS011;396;52.558;13.188;2022-11-20T13:32:27;14.47;;;6.00;;
828;SDS011;396;52.558;13.188;2022-11-20T13:34:57;20.03;;;6.60;;
828;SDS011;396;52.558;13.188;2022-11-20T13:37:27;10.70;;;5.33;;
828;SDS011;396;52.558;13.188;2022-11-20T13:40:19;10.97;;;5.07;;
828;SDS011;396;52.558;13.188;2022-11-20T13:42:53;12.00;;;4.40;;
828;SDS011;396;52.558;13.188;2022-11-20T13:45:23;12.10;;;4.90;;
828;SDS011;396;52.558;13.188;2022-11-20T13:47:52;14.57;;;6.70;;
828;SDS011;396;52.558;13.188;2022-11-20T13:50:21;14.70;;;6.13;;
828;SDS011;396;52.558;13.188;2022-11-20T13:53:06;15.43;;;7.03;;
828;SDS011;396;52.558;13.188;2022-11-20T13:55:45;18.73;;;7.43;;
828;SDS011;396;52.558;13.188;2022-11-20T13:58:24;17.27;;;6.93;;
828;SDS011;396;52.558;13.188;2022-11-20T14:01:07;16.97;;;6.43;;
828;SDS011;396;52.558;13.188;2022-11-20T14:03:35;13.10;;;5.97;;
828;SDS011;396;52.558;13.188;2022-11-20T14:06:05;11.27;;;5.50;;
828;SDS011;396;52.558;13.188;2022-11-20T14:08:39;15.83;;;6.30;;
828;SDS011;396;52.558;13.188;2022-11-20T14:11:14;14.83;;;5.93;;
828;SDS011;396;52.558;13.188;2022-11-20T14:16:41;13.27;;;5.27;;
828;SDS011;396;52.558;13.188;2022-11-20T14:19:23;13.43;;;6.10;;
828;SDS011;396;52.558;13.188;2022-11-20T14:21:53;11.57;;;5.07;;
828;SDS011;396;52.558;13.188;2022-11-20T14:24:21;12.77;;;5.90;;
828;SDS011;396;52.558;13.188;2022-11-20T14:26:51;14.57;;;6.20;;
828;SDS011;396;52.558;13.188;2022-11-20T14:29:18;14.47;;;6.90;;
828;SDS011;396;52.558;13.188;2022-11-20T14:31:48;14.70;;;5.87;;
828;SDS011;396;52.558;13.188;2022-11-20T14:34:20;15.33;;;6.07;;
828;SDS011;396;52.558;13.188;2022-11-20T14:36:49;13.43;;;5.60;;
828;SDS011;396;52.558;13.188;2022-11-20T14:39:22;12.87;;;5.43;;
828;SDS011;396;52.558;13.188;2022-11-20T14:41:54;13.63;;;5.23;;
828;SDS011;396;52.558;13.188;2022-11-20T14:44:26;11.90;;;5.00;;
828;SDS011;396;52.558;13.188;2022-11-20T14:46:55;10.43;;;5.20;;
828;SDS011;396;52.558;13.188;2022-11-20T14:49:23;15.80;;;5.80;;
828;SDS011;396;52.558;13.188;2022-11-20T14:51:58;9.80;;;4.90;;
828;SDS011;396;52.558;13.188;2022-11-20T14:54:25;12.77;;;6.60;;
828;SDS011;396;52.558;13.188;2022-11-20T14:56:54;15.93;;;6.57;;
828;SDS011;396;52.558;13.188;2022-11-20T14:59:22;33.33;;;6.50;;
828;SDS011;396;52.558;13.188;2022-11-20T15:01:54;18.33;;;7.30;;
828;SDS011;396;52.558;13.188;2022-11-20T15:04:22;12.73;;;5.83;;
828;SDS011;396;52.558;13.188;2022-11-20T15:06:49;19.80;;;7.00;;
828;SDS011;396;52.558;13.188;2022-11-20T15:09:17;19.70;;;6.73;;
828;SDS011;396;52.558;13.188;2022-11-20T15:11:50;15.07;;;6.90;;
828;SDS011;396;52.558;13.188;2022-11-20T15:14:22;13.33;;;5.90;;
828;SDS011;396;52.558;13.188;2022-11-20T15:16:49;11.37;;;5.83;;
828;SDS011;396;52.558;13.188;2022-11-20T15:19:17;15.10;;;6.20;;
828;SDS011;396;52.558;13.188;2022-11-20T15:21:45;16.53;;;6.37;;
828;SDS011;396;52.558;13.188;2022-11-20T15:24:12;15.07;;;6.17;;
828;SDS011;396;52.558;13.188;2022-11-20T15:26:39;13.43;;;5.77;;
828;SDS011;396;52.558;13.188;2022-11-20T15:29:07;11.80;;;5.23;;
828;SDS011;396;52.558;13.188;2022-11-20T15:31:37;12.93;;;6.47;;
828;SDS011;396;52.558;13.188;2022-11-20T15:34:07;14.97;;;6.00;;
828;SDS011;396;52.558;13.188;2022-11-20T15:36:37;14.23;;;6.30;;